»·PEaware :: RA34691 KSNA-KSNA

RA34691 :: KSNA-KSNA

FLIGHT INFORMATION

Flight Status: Arrived
Operator: Privately registered:
Russian Federation
More flights under this callsign
Pilot: Sergei F. (8485)
Aircraft: TUPOLEV TU-154
(T154)
More flights by this aircraft type
Origin: KSNA John Wayne-Orange Co
United States
Destination: KSNA John Wayne-Orange Co
United States
More flights between these airports :: More routes between these airports
Route: SLI
File this flight plan on PilotEdge
Remarks:
Altitude:
(Current/Filed)
5,000ft
Speed:
(Current/Filed)
200kts
Departed: 07-Jan-16 01:06 AM
Arrived: 07-Jan-16 01:46 AM
Distance/Time
Traveled:
0nm/0:40
Distance/Time
To Go:
Arrived

Flight Plot

Page will automatically refresh every two minutes.


Map Options




Map Legend


Flown Route
Filed Route
Departure Airport
Arrival Airport
Navaid (VOR, NDB)
Fix

Horizontal Profiles

Position Reports

Time Latitude Longitude Heading Altitude Ground
Speed
07-Jan-16 00:20 33.676082 -117.864428 118 63ft 0kts
07-Jan-16 00:21 33.676082 -117.864428 118 63ft 0kts
07-Jan-16 00:22 33.676082 -117.864428 118 63ft 0kts
07-Jan-16 00:23 33.676082 -117.864428 118 63ft 0kts
07-Jan-16 00:24 33.676082 -117.864428 118 63ft 0kts
07-Jan-16 00:25 33.676082 -117.864428 118 63ft 0kts
07-Jan-16 00:27 33.676082 -117.864428 118 63ft 0kts
07-Jan-16 00:28 33.676082 -117.864428 118 63ft 0kts
07-Jan-16 00:29 33.676082 -117.864428 118 63ft 0kts
07-Jan-16 00:30 33.676082 -117.864428 118 63ft 0kts
07-Jan-16 00:31 33.676082 -117.864428 118 63ft 0kts
07-Jan-16 00:32 33.676082 -117.864428 118 63ft 0kts
07-Jan-16 00:33 33.676082 -117.864428 118 63ft 0kts
07-Jan-16 00:34 33.676082 -117.864428 118 63ft 0kts
07-Jan-16 00:35 33.676082 -117.864428 118 63ft 0kts
07-Jan-16 00:36 33.676082 -117.864428 118 63ft 0kts
07-Jan-16 00:37 33.676082 -117.864428 118 63ft 0kts
07-Jan-16 00:38 33.676082 -117.864428 118 63ft 0kts
07-Jan-16 00:39 33.676082 -117.864428 118 63ft 0kts
07-Jan-16 00:40 33.676082 -117.864428 118 63ft 0kts
07-Jan-16 00:41 33.676082 -117.864428 118 63ft 0kts
07-Jan-16 00:42 33.676082 -117.864428 118 63ft 0kts
07-Jan-16 00:43 33.676082 -117.864428 118 63ft 0kts
07-Jan-16 00:44 33.676082 -117.864428 118 63ft 0kts
07-Jan-16 00:45 33.676082 -117.864428 118 63ft 0kts
07-Jan-16 00:46 33.676082 -117.864428 118 63ft 0kts
07-Jan-16 00:47 33.676082 -117.864428 118 63ft 0kts
07-Jan-16 00:48 33.676082 -117.864428 118 63ft 0kts
07-Jan-16 00:49 33.676312 -117.864991 92 63ft 0kts
07-Jan-16 00:50 33.676166 -117.865179 26 63ft 0kts
07-Jan-16 00:51 33.676166 -117.865179 26 63ft 0kts
07-Jan-16 00:52 33.676166 -117.865179 26 63ft 0kts
07-Jan-16 00:53 33.676168 -117.865178 26 63ft 0kts
07-Jan-16 00:54 33.676170 -117.865177 26 63ft 0kts
07-Jan-16 00:55 33.677324 -117.864454 27 63ft 9kts
07-Jan-16 00:56 33.680077 -117.862715 24 63ft 2kts
07-Jan-16 00:57 33.680594 -117.863045 300 63ft 0kts
07-Jan-16 00:58 33.680603 -117.863063 300 63ft 1kts
07-Jan-16 00:59 33.681323 -117.864678 297 63ft 4kts
07-Jan-16 01:00 33.681355 -117.865284 214 63ft 2kts
07-Jan-16 01:01 33.680437 -117.865867 207 63ft 37kts
07-Jan-16 01:02 33.647374 -117.886042 203 1023ft 175kts
07-Jan-16 01:03 33.595959 -117.907230 197 1640ft 224kts
07-Jan-16 01:04 33.536303 -117.933488 201 2317ft 231kts
07-Jan-16 01:05 33.473988 -117.950298 162 2478ft 233kts
07-Jan-16 01:06 33.467979 -117.893856 24 2467ft 210kts
07-Jan-16 01:07 33.525428 -117.900683 339 2470ft 211kts
07-Jan-16 01:08 33.581142 -117.923242 341 2471ft 211kts
07-Jan-16 01:08 33.627569 -117.941744 342 2471ft 211kts
07-Jan-16 01:09 33.683311 -117.963517 342 2613ft 208kts
07-Jan-16 01:10 33.739023 -117.985422 341 2914ft 212kts
07-Jan-16 01:11 33.795611 -118.007266 340 2980ft 213kts
07-Jan-16 01:12 33.853139 -118.021615 336 2976ft 212kts
07-Jan-16 01:13 33.908689 -118.012540 9 2977ft 214kts
07-Jan-16 01:14 33.966252 -117.995105 23 2974ft 212kts
07-Jan-16 01:15 34.010591 -117.948269 61 2978ft 212kts
07-Jan-16 01:16 34.002674 -117.876074 104 2974ft 220kts
07-Jan-16 01:17 33.987195 -117.811122 75 2975ft 214kts
07-Jan-16 01:18 34.031964 -117.772276 16 2972ft 220kts
07-Jan-16 01:19 34.091562 -117.752581 348 2978ft 223kts
07-Jan-16 01:20 34.144296 -117.786142 300 3131ft 208kts
07-Jan-16 01:21 34.163555 -117.851708 247 3953ft 218kts
07-Jan-16 01:22 34.112487 -117.869131 147 3868ft 226kts
07-Jan-16 01:23 34.064760 -117.821119 152 3879ft 224kts
07-Jan-16 01:24 34.010743 -117.780090 149 3880ft 228kts
07-Jan-16 01:25 33.957707 -117.744956 160 3895ft 195kts
07-Jan-16 01:26 33.910555 -117.711875 112 3873ft 206kts
07-Jan-16 01:27 33.934752 -117.668571 0 3885ft 178kts
07-Jan-16 01:28 33.981766 -117.655508 51 3886ft 182kts
07-Jan-16 01:29 33.962281 -117.613697 187 3889ft 174kts
07-Jan-16 01:30 33.918675 -117.638056 215 3884ft 172kts
07-Jan-16 01:31 33.897504 -117.687129 254 3880ft 171kts
07-Jan-16 01:32 33.880967 -117.740562 223 3861ft 173kts
07-Jan-16 01:33 33.839622 -117.765157 207 3571ft 152kts
07-Jan-16 01:34 33.801712 -117.788915 208 2624ft 153kts
07-Jan-16 01:35 33.764420 -117.812544 208 1885ft 148kts
07-Jan-16 01:36 33.727873 -117.835743 208 1088ft 149kts
07-Jan-16 01:37 33.690668 -117.857700 186 409ft 147kts
07-Jan-16 01:39 33.645099 -117.859754 208 767ft 177kts
07-Jan-16 01:40 33.635528 -117.891363 359 366ft 145kts
07-Jan-16 01:41 33.670325 -117.872222 26 64ft 113kts
07-Jan-16 01:42 33.681099 -117.865393 44 63ft 9kts
07-Jan-16 01:43 33.680278 -117.862835 163 63ft 6kts
07-Jan-16 01:44 33.679130 -117.862864 123 63ft 2kts
07-Jan-16 01:45 33.678993 -117.862579 118 63ft 0kts
07-Jan-16 01:46 33.678993 -117.862579 118 63ft 0kts

Navigation Log

Ident Type
Flight plan parsing failed, navigation log unavailable